sensor_id;sensor_type;location;lat;lon;timestamp;temperature;humidity
23729;DHT22;12045;60.214;24.724;2023-07-16T00:29:22;16.70;99.90
23729;DHT22;12045;60.214;24.724;2023-07-16T00:31:51;16.50;99.90
23729;DHT22;12045;60.214;24.724;2023-07-16T00:34:21;16.40;99.90
23729;DHT22;12045;60.214;24.724;2023-07-16T00:36:50;16.30;99.90
23729;DHT22;12045;60.214;24.724;2023-07-16T00:39:18;16.30;99.90
23729;DHT22;12045;60.214;24.724;2023-07-16T00:41:48;16.40;99.90
23729;DHT22;12045;60.214;24.724;2023-07-16T00:44:16;16.40;99.90
23729;DHT22;12045;60.214;24.724;2023-07-16T00:46:44;16.30;99.90
23729;DHT22;12045;60.214;24.724;2023-07-16T00:49:12;16.30;99.90
23729;DHT22;12045;60.214;24.724;2023-07-16T00:51:41;16.30;99.90
23729;DHT22;12045;60.214;24.724;2023-07-16T00:54:10;16.30;99.90
23729;DHT22;12045;60.214;24.724;2023-07-16T00:56:38;16.40;99.90
23729;DHT22;12045;60.214;24.724;2023-07-16T00:59:05;16.50;99.90
23729;DHT22;12045;60.214;24.724;2023-07-16T01:01:35;16.40;99.90
23729;DHT22;12045;60.214;24.724;2023-07-16T01:04:03;16.40;99.90
23729;DHT22;12045;60.214;24.724;2023-07-16T01:09:15;16.30;99.90
23729;DHT22;12045;60.214;24.724;2023-07-16T01:11:53;16.30;99.90
23729;DHT22;12045;60.214;24.724;2023-07-16T01:14:24;16.30;99.90
23729;DHT22;12045;60.214;24.724;2023-07-16T01:17:03;16.30;99.90
23729;DHT22;12045;60.214;24.724;2023-07-16T01:19:31;16.30;99.90
23729;DHT22;12045;60.214;24.724;2023-07-16T01:30:15;16.10;99.90
23729;DHT22;12045;60.214;24.724;2023-07-16T01:32:45;16.00;99.90
23729;DHT22;12045;60.214;24.724;2023-07-16T01:35:15;15.80;99.90
23729;DHT22;12045;60.214;24.724;2023-07-16T01:37:42;15.60;99.90
23729;DHT22;12045;60.214;24.724;2023-07-16T01:40:10;15.60;99.90
23729;DHT22;12045;60.214;24.724;2023-07-16T01:42:39;15.30;99.90
23729;DHT22;12045;60.214;24.724;2023-07-16T01:45:07;15.40;99.90
23729;DHT22;12045;60.214;24.724;2023-07-16T02:49:14;16.00;99.90
23729;DHT22;12045;60.214;24.724;2023-07-16T02:51:42;16.00;99.90
23729;DHT22;12045;60.214;24.724;2023-07-16T02:54:11;16.00;99.90
23729;DHT22;12045;60.214;24.724;2023-07-16T02:56:39;16.10;99.90
23729;DHT22;12045;60.214;24.724;2023-07-16T02:59:07;16.20;99.90
23729;DHT22;12045;60.214;24.724;2023-07-16T03:01:35;16.20;99.90
23729;DHT22;12045;60.214;24.724;2023-07-16T03:04:03;16.20;99.90
23729;DHT22;12045;60.214;24.724;2023-07-16T03:06:32;16.10;99.90
23729;DHT22;12045;60.214;24.724;2023-07-16T03:09:00;16.20;99.90
23729;DHT22;12045;60.214;24.724;2023-07-16T03:11:28;16.50;99.90
23729;DHT22;12045;60.214;24.724;2023-07-16T03:13:55;16.40;99.90
23729;DHT22;12045;60.214;24.724;2023-07-16T03:16:23;16.40;99.90
23729;DHT22;12045;60.214;24.724;2023-07-16T03:18:52;16.40;99.90
23729;DHT22;12045;60.214;24.724;2023-07-16T03:21:20;16.50;99.90
23729;DHT22;12045;60.214;24.724;2023-07-16T03:23:49;16.50;99.90
23729;DHT22;12045;60.214;24.724;2023-07-16T03:26:16;16.70;99.90
23729;DHT22;12045;60.214;24.724;2023-07-16T03:28:50;16.70;99.90
23729;DHT22;12045;60.214;24.724;2023-07-16T03:31:19;16.90;99.90
23729;DHT22;12045;60.214;24.724;2023-07-16T03:33:48;17.10;99.90
23729;DHT22;12045;60.214;24.724;2023-07-16T03:36:20;17.20;99.90
23729;DHT22;12045;60.214;24.724;2023-07-16T03:38:49;17.30;99.90
23729;DHT22;12045;60.214;24.724;2023-07-16T03:41:22;17.50;99.90
23729;DHT22;12045;60.214;24.724;2023-07-16T03:43:52;17.50;99.90
23729;DHT22;12045;60.214;24.724;2023-07-16T03:46:22;17.70;99.90
23729;DHT22;12045;60.214;24.724;2023-07-16T04:09:32;18.70;99.90
23729;DHT22;12045;60.214;24.724;2023-07-16T04:12:00;18.80;99.90
23729;DHT22;12045;60.214;24.724;2023-07-16T04:14:28;18.80;99.90
23729;DHT22;12045;60.214;24.724;2023-07-16T04:16:56;18.80;99.90
23729;DHT22;12045;60.214;24.724;2023-07-16T04:19:25;19.00;99.90
23729;DHT22;12045;60.214;24.724;2023-07-16T04:21:54;19.00;99.90
23729;DHT22;12045;60.214;24.724;2023-07-16T04:24:24;19.10;99.90
23729;DHT22;12045;60.214;24.724;2023-07-16T04:26:53;19.20;99.90
23729;DHT22;12045;60.214;24.724;2023-07-16T04:29:23;19.40;99.90
23729;DHT22;12045;60.214;24.724;2023-07-16T04:31:55;19.40;99.90
23729;DHT22;12045;60.214;24.724;2023-07-16T04:34:23;19.50;99.90
23729;DHT22;12045;60.214;24.724;2023-07-16T04:36:50;19.30;99.90
23729;DHT22;12045;60.214;24.724;2023-07-16T04:39:20;19.30;99.90
23729;DHT22;12045;60.214;24.724;2023-07-16T04:41:50;19.50;99.90
23729;DHT22;12045;60.214;24.724;2023-07-16T04:44:18;19.30;99.90
23729;DHT22;12045;60.214;24.724;2023-07-16T04:46:47;19.30;99.90
23729;DHT22;12045;60.214;24.724;2023-07-16T04:49:17;19.60;99.90
23729;DHT22;12045;60.214;24.724;2023-07-16T04:51:47;19.60;99.90
23729;DHT22;12045;60.214;24.724;2023-07-16T04:54:14;19.60;99.90
23729;DHT22;12045;60.214;24.724;2023-07-16T04:56:45;19.70;99.90
23729;DHT22;12045;60.214;24.724;2023-07-16T04:59:14;19.80;99.90
23729;DHT22;12045;60.214;24.724;2023-07-16T05:01:42;19.60;99.90
23729;DHT22;12045;60.214;24.724;2023-07-16T05:04:10;19.70;99.90
23729;DHT22;12045;60.214;24.724;2023-07-16T05:06:38;19.70;99.90
23729;DHT22;12045;60.214;24.724;2023-07-16T05:09:06;19.80;99.90
23729;DHT22;12045;60.214;24.724;2023-07-16T05:11:35;19.90;99.90
23729;DHT22;12045;60.214;24.724;2023-07-16T05:14:06;20.00;99.90
23729;DHT22;12045;60.214;24.724;2023-07-16T05:16:34;20.20;99.90
23729;DHT22;12045;60.214;24.724;2023-07-16T05:19:05;20.20;99.90
23729;DHT22;12045;60.214;24.724;2023-07-16T05:21:33;20.30;99.90
23729;DHT22;12045;60.214;24.724;2023-07-16T05:24:04;20.40;99.90
23729;DHT22;12045;60.214;24.724;2023-07-16T05:26:32;20.40;99.90
23729;DHT22;12045;60.214;24.724;2023-07-16T05:29:02;20.50;99.90
23729;DHT22;12045;60.214;24.724;2023-07-16T05:31:31;20.50;99.90
23729;DHT22;12045;60.214;24.724;2023-07-16T05:34:01;20.50;99.90
23729;DHT22;12045;60.214;24.724;2023-07-16T05:36:30;20.50;99.90
23729;DHT22;12045;60.214;24.724;2023-07-16T05:39:01;20.60;99.90
23729;DHT22;12045;60.214;24.724;2023-07-16T05:41:28;20.60;99.90
23729;DHT22;12045;60.214;24.724;2023-07-16T05:43:58;20.70;99.90
23729;DHT22;12045;60.214;24.724;2023-07-16T05:46:27;20.60;99.90
23729;DHT22;12045;60.214;24.724;2023-07-16T05:48:56;20.60;99.90
23729;DHT22;12045;60.214;24.724;2023-07-16T05:51:24;21.20;99.90
23729;DHT22;12045;60.214;24.724;2023-07-16T05:53:59;20.70;99.90
23729;DHT22;12045;60.214;24.724;2023-07-16T05:56:29;21.10;99.90
23729;DHT22;12045;60.214;24.724;2023-07-16T05:58:58;20.60;99.90
23729;DHT22;12045;60.214;24.724;2023-07-16T06:01:27;20.80;99.90
23729;DHT22;12045;60.214;24.724;2023-07-16T06:04:07;20.90;99.90
23729;DHT22;12045;60.214;24.724;2023-07-16T06:06:41;20.90;99.90
23729;DHT22;12045;60.214;24.724;2023-07-16T06:09:12;20.70;99.90
23729;DHT22;12045;60.214;24.724;2023-07-16T06:11:41;20.70;99.90
23729;DHT22;12045;60.214;24.724;2023-07-16T06:14:09;20.60;99.90
23729;DHT22;12045;60.214;24.724;2023-07-16T06:16:37;20.80;99.90
23729;DHT22;12045;60.214;24.724;2023-07-16T06:19:06;20.70;99.90
23729;DHT22;12045;60.214;24.724;2023-07-16T06:21:35;20.80;99.90
23729;DHT22;12045;60.214;24.724;2023-07-16T06:24:04;20.80;99.90
23729;DHT22;12045;60.214;24.724;2023-07-16T06:26:31;21.00;99.90
23729;DHT22;12045;60.214;24.724;2023-07-16T06:29:04;21.00;99.90
23729;DHT22;12045;60.214;24.724;2023-07-16T06:31:55;21.00;99.90
23729;DHT22;12045;60.214;24.724;2023-07-16T06:34:25;20.80;99.90
23729;DHT22;12045;60.214;24.724;2023-07-16T06:36:53;20.70;99.90
23729;DHT22;12045;60.214;24.724;2023-07-16T06:39:30;20.50;99.90
23729;DHT22;12045;60.214;24.724;2023-07-16T06:44:36;20.50;99.90
23729;DHT22;12045;60.214;24.724;2023-07-16T06:47:11;20.40;99.90
23729;DHT22;12045;60.214;24.724;2023-07-16T09:09:27;23.50;99.90
23729;DHT22;12045;60.214;24.724;2023-07-16T09:11:55;23.30;99.90
23729;DHT22;12045;60.214;24.724;2023-07-16T09:14:23;23.30;99.90
23729;DHT22;12045;60.214;24.724;2023-07-16T09:16:51;23.30;99.90
23729;DHT22;12045;60.214;24.724;2023-07-16T09:19:20;23.40;99.90
23729;DHT22;12045;60.214;24.724;2023-07-16T09:21:49;23.60;99.90
23729;DHT22;12045;60.214;24.724;2023-07-16T09:24:20;23.60;99.90
23729;DHT22;12045;60.214;24.724;2023-07-16T09:26:50;23.70;99.90
23729;DHT22;12045;60.214;24.724;2023-07-16T09:29:21;23.60;99.90
23729;DHT22;12045;60.214;24.724;2023-07-16T09:32:01;23.60;99.90
23729;DHT22;12045;60.214;24.724;2023-07-16T09:34:34;23.80;99.90
23729;DHT22;12045;60.214;24.724;2023-07-16T09:37:05;23.90;99.90
23729;DHT22;12045;60.214;24.724;2023-07-16T09:39:37;24.00;99.90
23729;DHT22;12045;60.214;24.724;2023-07-16T09:42:06;24.10;99.90
23729;DHT22;12045;60.214;24.724;2023-07-16T11:30:24;26.30;99.10
23729;DHT22;12045;60.214;24.724;2023-07-16T11:32:52;26.00;99.70
23729;DHT22;12045;60.214;24.724;2023-07-16T11:35:21;25.70;99.80
23729;DHT22;12045;60.214;24.724;2023-07-16T11:37:49;25.40;99.60
23729;DHT22;12045;60.214;24.724;2023-07-16T11:40:18;25.30;99.90
23729;DHT22;12045;60.214;24.724;2023-07-16T11:42:46;25.30;99.90
23729;DHT22;12045;60.214;24.724;2023-07-16T11:45:22;25.40;99.90
23729;DHT22;12045;60.214;24.724;2023-07-16T11:47:52;25.60;99.90
23729;DHT22;12045;60.214;24.724;2023-07-16T11:50:23;25.90;99.90
23729;DHT22;12045;60.214;24.724;2023-07-16T12:05:37;26.80;99.20
23729;DHT22;12045;60.214;24.724;2023-07-16T12:08:23;26.90;98.80
23729;DHT22;12045;60.214;24.724;2023-07-16T12:33:03;27.40;97.90
23729;DHT22;12045;60.214;24.724;2023-07-16T12:35:31;27.50;97.50
23729;DHT22;12045;60.214;24.724;2023-07-16T12:38:04;27.50;97.00
23729;DHT22;12045;60.214;24.724;2023-07-16T12:40:32;27.70;97.20
23729;DHT22;12045;60.214;24.724;2023-07-16T12:43:07;27.80;96.70
23729;DHT22;12045;60.214;24.724;2023-07-16T12:45:35;27.80;96.80
23729;DHT22;12045;60.214;24.724;2023-07-16T12:48:04;27.50;96.50
23729;DHT22;12045;60.214;24.724;2023-07-16T12:50:34;27.20;96.90
23729;DHT22;12045;60.214;24.724;2023-07-16T12:53:02;27.00;97.40
23729;DHT22;12045;60.214;24.724;2023-07-16T12:55:30;27.00;97.10
23729;DHT22;12045;60.214;24.724;2023-07-16T12:57:58;27.10;97.00
23729;DHT22;12045;60.214;24.724;2023-07-16T13:00:26;27.20;96.90
23729;DHT22;12045;60.214;24.724;2023-07-16T13:02:54;27.00;96.90
23729;DHT22;12045;60.214;24.724;2023-07-16T13:05:23;26.80;97.60
23729;DHT22;12045;60.214;24.724;2023-07-16T13:07:53;26.60;97.80
23729;DHT22;12045;60.214;24.724;2023-07-16T13:10:20;26.50;98.20
23729;DHT22;12045;60.214;24.724;2023-07-16T13:12:51;26.50;99.10
23729;DHT22;12045;60.214;24.724;2023-07-16T13:15:21;26.70;99.10
23729;DHT22;12045;60.214;24.724;2023-07-16T13:17:49;26.80;99.30
23729;DHT22;12045;60.214;24.724;2023-07-16T13:20:18;26.90;98.50
23729;DHT22;12045;60.214;24.724;2023-07-16T13:22:49;27.10;98.70
23729;DHT22;12045;60.214;24.724;2023-07-16T13:25:17;27.20;98.50
23729;DHT22;12045;60.214;24.724;2023-07-16T13:27:44;27.10;98.40
23729;DHT22;12045;60.214;24.724;2023-07-16T13:30:16;26.60;98.90
23729;DHT22;12045;60.214;24.724;2023-07-16T13:32:44;26.30;99.20
23729;DHT22;12045;60.214;24.724;2023-07-16T13:35:15;26.10;99.70
23729;DHT22;12045;60.214;24.724;2023-07-16T13:37:43;26.00;99.90
23729;DHT22;12045;60.214;24.724;2023-07-16T13:40:12;26.00;99.90
23729;DHT22;12045;60.214;24.724;2023-07-16T13:42:40;26.20;99.80
23729;DHT22;12045;60.214;24.724;2023-07-16T13:45:09;26.30;99.40
23729;DHT22;12045;60.214;24.724;2023-07-16T13:47:36;26.50;99.50
23729;DHT22;12045;60.214;24.724;2023-07-16T13:50:07;26.40;99.30
23729;DHT22;12045;60.214;24.724;2023-07-16T14:09:40;26.00;98.30
23729;DHT22;12045;60.214;24.724;2023-07-16T14:12:08;26.00;98.20
23729;DHT22;12045;60.214;24.724;2023-07-16T14:14:37;25.90;98.20
23729;DHT22;12045;60.214;24.724;2023-07-16T14:17:05;25.80;97.70
23729;DHT22;12045;60.214;24.724;2023-07-16T14:19:35;25.80;98.10
23729;DHT22;12045;60.214;24.724;2023-07-16T14:22:03;25.90;98.50
23729;DHT22;12045;60.214;24.724;2023-07-16T14:24:31;25.90;98.40
23729;DHT22;12045;60.214;24.724;2023-07-16T14:27:00;25.80;98.30
23729;DHT22;12045;60.214;24.724;2023-07-16T14:29:31;25.70;98.70
23729;DHT22;12045;60.214;24.724;2023-07-16T14:32:01;25.50;98.70
23729;DHT22;12045;60.214;24.724;2023-07-16T14:34:30;25.50;99.00
23729;DHT22;12045;60.214;24.724;2023-07-16T14:37:04;25.40;99.00
23729;DHT22;12045;60.214;24.724;2023-07-16T14:39:33;25.30;99.50
23729;DHT22;12045;60.214;24.724;2023-07-16T14:42:01;25.30;99.90
23729;DHT22;12045;60.214;24.724;2023-07-16T14:44:33;25.40;99.80
23729;DHT22;12045;60.214;24.724;2023-07-16T14:47:02;25.40;99.90
23729;DHT22;12045;60.214;24.724;2023-07-16T14:49:34;25.30;99.90
23729;DHT22;12045;60.214;24.724;2023-07-16T14:52:04;25.20;99.90
23729;DHT22;12045;60.214;24.724;2023-07-16T14:54:32;25.20;99.90
23729;DHT22;12045;60.214;24.724;2023-07-16T14:57:04;25.20;99.90
23729;DHT22;12045;60.214;24.724;2023-07-16T14:59:32;25.20;99.90
23729;DHT22;12045;60.214;24.724;2023-07-16T15:02:03;25.40;99.90
23729;DHT22;12045;60.214;24.724;2023-07-16T15:04:33;25.50;99.90
23729;DHT22;12045;60.214;24.724;2023-07-16T15:07:01;25.40;99.60
23729;DHT22;12045;60.214;24.724;2023-07-16T15:09:28;25.40;99.90
23729;DHT22;12045;60.214;24.724;2023-07-16T15:11:58;25.20;99.90
23729;DHT22;12045;60.214;24.724;2023-07-16T15:14:28;25.20;99.90
23729;DHT22;12045;60.214;24.724;2023-07-16T15:16:57;25.10;99.90
23729;DHT22;12045;60.214;24.724;2023-07-16T15:19:25;25.10;99.90
23729;DHT22;12045;60.214;24.724;2023-07-16T15:21:53;25.10;99.90
23729;DHT22;12045;60.214;24.724;2023-07-16T15:24:20;25.00;99.90
23729;DHT22;12045;60.214;24.724;2023-07-16T15:26:50;25.00;99.90
23729;DHT22;12045;60.214;24.724;2023-07-16T15:29:19;25.00;99.90
23729;DHT22;12045;60.214;24.724;2023-07-16T15:31:49;25.10;99.90
23729;DHT22;12045;60.214;24.724;2023-07-16T15:34:16;25.00;99.90
23729;DHT22;12045;60.214;24.724;2023-07-16T15:36:45;25.00;99.90
23729;DHT22;12045;60.214;24.724;2023-07-16T15:39:13;25.00;99.90
23729;DHT22;12045;60.214;24.724;2023-07-16T15:41:40;24.90;99.90
23729;DHT22;12045;60.214;24.724;2023-07-16T15:44:09;24.90;99.90
23729;DHT22;12045;60.214;24.724;2023-07-16T15:46:36;24.80;99.90
23729;DHT22;12045;60.214;24.724;2023-07-16T15:49:11;24.70;99.90
23729;DHT22;12045;60.214;24.724;2023-07-16T15:57:00;24.50;99.90
23729;DHT22;12045;60.214;24.724;2023-07-16T15:59:52;24.30;99.90
23729;DHT22;12045;60.214;24.724;2023-07-16T16:02:24;23.90;99.90
23729;DHT22;12045;60.214;24.724;2023-07-16T16:04:58;23.90;99.90
23729;DHT22;12045;60.214;24.724;2023-07-16T16:07:44;23.70;99.90
23729;DHT22;12045;60.214;24.724;2023-07-16T16:10:18;23.40;99.90
23729;DHT22;12045;60.214;24.724;2023-07-16T16:12:47;23.20;99.90
23729;DHT22;12045;60.214;24.724;2023-07-16T16:15:16;23.10;99.90
23729;DHT22;12045;60.214;24.724;2023-07-16T16:17:44;23.10;99.90
23729;DHT22;12045;60.214;24.724;2023-07-16T16:20:12;23.10;99.90
23729;DHT22;12045;60.214;24.724;2023-07-16T16:22:42;23.10;99.90
23729;DHT22;12045;60.214;24.724;2023-07-16T16:25:09;23.10;99.90
23729;DHT22;12045;60.214;24.724;2023-07-16T16:27:38;23.20;99.90
23729;DHT22;12045;60.214;24.724;2023-07-16T16:30:07;23.40;99.90
23729;DHT22;12045;60.214;24.724;2023-07-16T16:32:34;23.40;99.90
23729;DHT22;12045;60.214;24.724;2023-07-16T16:35:03;23.40;99.90
23729;DHT22;12045;60.214;24.724;2023-07-16T16:37:31;23.50;99.90
23729;DHT22;12045;60.214;24.724;2023-07-16T16:40:04;23.60;99.90
23729;DHT22;12045;60.214;24.724;2023-07-16T16:42:34;23.50;99.90
23729;DHT22;12045;60.214;24.724;2023-07-16T16:45:02;23.60;99.90
23729;DHT22;12045;60.214;24.724;2023-07-16T16:47:34;23.50;99.90
23729;DHT22;12045;60.214;24.724;2023-07-16T16:50:03;23.50;99.90
23729;DHT22;12045;60.214;24.724;2023-07-16T16:52:32;23.40;99.90
23729;DHT22;12045;60.214;24.724;2023-07-16T16:55:04;23.40;99.90
23729;DHT22;12045;60.214;24.724;2023-07-16T16:57:32;23.40;99.90
23729;DHT22;12045;60.214;24.724;2023-07-16T17:00:00;23.40;99.90
23729;DHT22;12045;60.214;24.724;2023-07-16T17:02:28;23.40;99.90
23729;DHT22;12045;60.214;24.724;2023-07-16T17:04:56;23.40;99.90
23729;DHT22;12045;60.214;24.724;2023-07-16T17:07:24;23.40;99.90
23729;DHT22;12045;60.214;24.724;2023-07-16T17:09:52;23.40;99.90
23729;DHT22;12045;60.214;24.724;2023-07-16T17:12:22;23.30;99.90
23729;DHT22;12045;60.214;24.724;2023-07-16T17:14:50;23.30;99.90
23729;DHT22;12045;60.214;24.724;2023-07-16T17:17:17;23.30;99.90
23729;DHT22;12045;60.214;24.724;2023-07-16T17:19:52;23.30;99.90
23729;DHT22;12045;60.214;24.724;2023-07-16T17:22:22;23.30;99.90
23729;DHT22;12045;60.214;24.724;2023-07-16T17:24:49;23.40;99.90
23729;DHT22;12045;60.214;24.724;2023-07-16T17:27:18;23.40;99.90
23729;DHT22;12045;60.214;24.724;2023-07-16T17:29:55;23.50;99.90
23729;DHT22;12045;60.214;24.724;2023-07-16T17:43:47;23.50;99.90
23729;DHT22;12045;60.214;24.724;2023-07-16T17:46:35;23.40;99.90
23729;DHT22;12045;60.214;24.724;2023-07-16T17:49:13;23.40;99.90
23729;DHT22;12045;60.214;24.724;2023-07-16T18:30:28;20.40;99.90
23729;DHT22;12045;60.214;24.724;2023-07-16T18:32:56;20.40;99.90
23729;DHT22;12045;60.214;24.724;2023-07-16T18:35:25;20.60;99.90
23729;DHT22;12045;60.214;24.724;2023-07-16T18:37:52;20.70;99.90
23729;DHT22;12045;60.214;24.724;2023-07-16T18:40:23;20.90;99.90
23729;DHT22;12045;60.214;24.724;2023-07-16T18:42:59;20.90;99.90
23729;DHT22;12045;60.214;24.724;2023-07-16T18:45:26;21.00;99.90
23729;DHT22;12045;60.214;24.724;2023-07-16T18:47:58;20.90;99.90
23729;DHT22;12045;60.214;24.724;2023-07-16T18:50:27;20.90;99.90
23729;DHT22;12045;60.214;24.724;2023-07-16T18:52:56;20.90;99.90
23729;DHT22;12045;60.214;24.724;2023-07-16T18:55:27;20.80;99.90
23729;DHT22;12045;60.214;24.724;2023-07-16T18:57:55;20.80;99.90
23729;DHT22;12045;60.214;24.724;2023-07-16T19:00:23;20.80;99.90
23729;DHT22;12045;60.214;24.724;2023-07-16T19:02:53;20.90;99.90
23729;DHT22;12045;60.214;24.724;2023-07-16T19:05:23;20.90;99.90
23729;DHT22;12045;60.214;24.724;2023-07-16T19:07:52;20.90;99.90
23729;DHT22;12045;60.214;24.724;2023-07-16T19:10:20;20.80;99.90
23729;DHT22;12045;60.214;24.724;2023-07-16T19:12:48;20.70;99.90
23729;DHT22;12045;60.214;24.724;2023-07-16T19:15:16;20.70;99.90
23729;DHT22;12045;60.214;24.724;2023-07-16T19:17:45;20.70;99.90
23729;DHT22;12045;60.214;24.724;2023-07-16T19:20:17;20.70;99.90
23729;DHT22;12045;60.214;24.724;2023-07-16T19:22:45;20.60;99.90
23729;DHT22;12045;60.214;24.724;2023-07-16T19:25:17;20.60;99.90
23729;DHT22;12045;60.214;24.724;2023-07-16T19:27:46;20.40;99.90
23729;DHT22;12045;60.214;24.724;2023-07-16T19:30:15;20.40;99.90
23729;DHT22;12045;60.214;24.724;2023-07-16T19:32:45;20.40;99.90
23729;DHT22;12045;60.214;24.724;2023-07-16T19:35:18;20.30;99.90
23729;DHT22;12045;60.214;24.724;2023-07-16T19:37:47;20.20;99.90
23729;DHT22;12045;60.214;24.724;2023-07-16T19:40:16;20.10;99.90
23729;DHT22;12045;60.214;24.724;2023-07-16T19:42:43;20.00;99.90
23729;DHT22;12045;60.214;24.724;2023-07-16T19:45:16;20.00;99.90
23729;DHT22;12045;60.214;24.724;2023-07-16T19:47:45;19.90;99.90
23729;DHT22;12045;60.214;24.724;2023-07-16T19:50:14;19.80;99.90
23729;DHT22;12045;60.214;24.724;2023-07-16T19:52:47;19.80;99.90
23729;DHT22;12045;60.214;24.724;2023-07-16T19:55:15;19.80;99.90
23729;DHT22;12045;60.214;24.724;2023-07-16T19:57:44;19.60;99.90
23729;DHT22;12045;60.214;24.724;2023-07-16T20:00:13;19.70;99.90
23729;DHT22;12045;60.214;24.724;2023-07-16T20:02:47;19.70;99.90
23729;DHT22;12045;60.214;24.724;2023-07-16T20:05:16;19.80;99.90
23729;DHT22;12045;60.214;24.724;2023-07-16T20:07:46;19.70;99.90
23729;DHT22;12045;60.214;24.724;2023-07-16T20:10:15;19.70;99.90
23729;DHT22;12045;60.214;24.724;2023-07-16T20:12:47;19.70;99.90
23729;DHT22;12045;60.214;24.724;2023-07-16T20:15:28;19.80;99.90
23729;DHT22;12045;60.214;24.724;2023-07-16T20:17:56;19.90;99.90
23729;DHT22;12045;60.214;24.724;2023-07-16T20:20:24;20.00;99.90
23729;DHT22;12045;60.214;24.724;2023-07-16T20:22:52;20.10;99.90
23729;DHT22;12045;60.214;24.724;2023-07-16T20:25:21;20.00;99.90
23729;DHT22;12045;60.214;24.724;2023-07-16T20:27:54;20.10;99.90
23729;DHT22;12045;60.214;24.724;2023-07-16T20:30:25;20.10;99.90
23729;DHT22;12045;60.214;24.724;2023-07-16T20:32:55;20.00;99.90
23729;DHT22;12045;60.214;24.724;2023-07-16T20:35:24;20.00;99.90
23729;DHT22;12045;60.214;24.724;2023-07-16T20:37:53;20.00;99.90
23729;DHT22;12045;60.214;24.724;2023-07-16T20:40:36;20.00;99.90
23729;DHT22;12045;60.214;24.724;2023-07-16T20:43:04;20.10;99.90
23729;DHT22;12045;60.214;24.724;2023-07-16T20:45:56;20.00;99.90
23729;DHT22;12045;60.214;24.724;2023-07-16T20:48:38;20.00;99.90
23729;DHT22;12045;60.214;24.724;2023-07-16T20:51:25;20.00;99.90
23729;DHT22;12045;60.214;24.724;2023-07-16T20:53:52;20.00;99.90
23729;DHT22;12045;60.214;24.724;2023-07-16T20:56:20;20.00;99.90
23729;DHT22;12045;60.214;24.724;2023-07-16T20:58:51;20.10;99.90
23729;DHT22;12045;60.214;24.724;2023-07-16T21:01:23;20.00;99.90
23729;DHT22;12045;60.214;24.724;2023-07-16T21:03:52;20.10;99.90
23729;DHT22;12045;60.214;24.724;2023-07-16T21:06:21;20.10;99.90
23729;DHT22;12045;60.214;24.724;2023-07-16T21:08:49;20.00;99.90
23729;DHT22;12045;60.214;24.724;2023-07-16T21:11:17;20.00;99.90
23729;DHT22;12045;60.214;24.724;2023-07-16T21:13:45;20.00;99.90
23729;DHT22;12045;60.214;24.724;2023-07-16T21:16:15;20.10;99.90
23729;DHT22;12045;60.214;24.724;2023-07-16T21:18:43;20.00;99.90
23729;DHT22;12045;60.214;24.724;2023-07-16T21:21:12;20.00;99.90
23729;DHT22;12045;60.214;24.724;2023-07-16T21:23:42;20.10;99.90
23729;DHT22;12045;60.214;24.724;2023-07-16T21:26:11;20.10;99.90
23729;DHT22;12045;60.214;24.724;2023-07-16T21:28:40;20.10;99.90
23729;DHT22;12045;60.214;24.724;2023-07-16T21:31:11;20.10;99.90
23729;DHT22;12045;60.214;24.724;2023-07-16T21:33:39;20.10;99.90
23729;DHT22;12045;60.214;24.724;2023-07-16T21:36:07;20.10;99.90
23729;DHT22;12045;60.214;24.724;2023-07-16T21:38:48;20.00;99.90
23729;DHT22;12045;60.214;24.724;2023-07-16T21:41:16;20.00;99.90
23729;DHT22;12045;60.214;24.724;2023-07-16T21:43:44;20.00;99.90
23729;DHT22;12045;60.214;24.724;2023-07-16T21:46:13;20.00;99.90
23729;DHT22;12045;60.214;24.724;2023-07-16T21:48:40;20.10;99.90
23729;DHT22;12045;60.214;24.724;2023-07-16T21:51:11;20.00;99.90
23729;DHT22;12045;60.214;24.724;2023-07-16T21:53:39;19.90;99.90
23729;DHT22;12045;60.214;24.724;2023-07-16T21:56:08;19.90;99.90
23729;DHT22;12045;60.214;24.724;2023-07-16T21:58:36;19.90;99.90
23729;DHT22;12045;60.214;24.724;2023-07-16T22:01:04;19.90;99.90
23729;DHT22;12045;60.214;24.724;2023-07-16T22:03:31;19.90;99.90
23729;DHT22;12045;60.214;24.724;2023-07-16T22:06:00;19.80;99.90
23729;DHT22;12045;60.214;24.724;2023-07-16T22:08:27;19.80;99.90
23729;DHT22;12045;60.214;24.724;2023-07-16T22:10:56;19.90;99.90
23729;DHT22;12045;60.214;24.724;2023-07-16T22:13:24;19.70;99.90
23729;DHT22;12045;60.214;24.724;2023-07-16T22:15:51;19.50;99.90
23729;DHT22;12045;60.214;24.724;2023-07-16T22:18:21;19.50;99.90
23729;DHT22;12045;60.214;24.724;2023-07-16T22:20:50;19.50;99.90
23729;DHT22;12045;60.214;24.724;2023-07-16T22:23:18;19.50;99.90
23729;DHT22;12045;60.214;24.724;2023-07-16T22:25:45;19.50;99.90
23729;DHT22;12045;60.214;24.724;2023-07-16T22:28:14;19.50;99.90
23729;DHT22;12045;60.214;24.724;2023-07-16T22:30:43;19.60;99.90
23729;DHT22;12045;60.214;24.724;2023-07-16T22:33:12;19.60;99.90
23729;DHT22;12045;60.214;24.724;2023-07-16T22:35:40;19.70;99.90
23729;DHT22;12045;60.214;24.724;2023-07-16T22:38:08;19.60;99.90
23729;DHT22;12045;60.214;24.724;2023-07-16T22:40:38;19.60;99.90
23729;DHT22;12045;60.214;24.724;2023-07-16T22:43:07;19.60;99.90
23729;DHT22;12045;60.214;24.724;2023-07-16T22:45:39;19.50;99.90
23729;DHT22;12045;60.214;24.724;2023-07-16T22:48:10;19.40;99.90
23729;DHT22;12045;60.214;24.724;2023-07-16T23:31:56;18.90;99.90
23729;DHT22;12045;60.214;24.724;2023-07-16T23:34:26;18.90;99.90
23729;DHT22;12045;60.214;24.724;2023-07-16T23:36:57;18.90;99.90
23729;DHT22;12045;60.214;24.724;2023-07-16T23:39:25;18.80;99.90
23729;DHT22;12045;60.214;24.724;2023-07-16T23:41:54;18.80;99.90
23729;DHT22;12045;60.214;24.724;2023-07-16T23:44:21;18.70;99.90
23729;DHT22;12045;60.214;24.724;2023-07-16T23:46:49;18.70;99.90
23729;DHT22;12045;60.214;24.724;2023-07-16T23:49:16;18.60;99.90
23729;DHT22;12045;60.214;24.724;2023-07-16T23:51:44;18.40;99.90
23729;DHT22;12045;60.214;24.724;2023-07-16T23:54:11;18.10;99.90
23729;DHT22;12045;60.214;24.724;2023-07-16T23:56:49;18.00;99.90
23729;DHT22;12045;60.214;24.724;2023-07-16T23:59:18;18.00;99.90
